LIPH/TSF METAR and TAF weather

Enter ICAO airport designator
Station Type Date Time Source
LIPH METAR 2019/08/24 06:50 UTC NOAA

LIPH 240650Z 36004KT 330V030 CAVOK 24/19 Q1019


Station Type Date Time Source
LIPH Decoded METAR 2019/08/24 06:50 UTC NOAA

Station name not available
Aug 24, 2019 - 02:50 AM EDT / 2019.08.24 0650 UTC
Wind: from the N (360 degrees) at 5 MPH (4 KT) (direction variable):0
Visibility: greater than 7 mile(s):0
Temperature: 75 F (24 C)
Dew Point: 66 F (19 C)
Relative Humidity: 73%
Pressure (altimeter): 30.09 in. Hg (1019 hPa)
ob: LIPH 240650Z 36004KT 330V030 CAVOK 24/19 Q1019
cycle: 7

Station Type Date Time Source
LIPH TAF 2019/08/24 06:21 UTC NOAA

TAF LIPH 240500Z 2406/2506 VRB05KT 9999 SCT040
TEMPO 2412/2420 SHRA

Example: see airport list